Time;durP1;ratioP1;P1;durP2;ratioP2;P2;SDS_P1;SDS_P2;PMS_P1;PMS_P2;Temp;Humidity;BMP_temperature;BMP_pressure;BME280_temperature;BME280_humidity;BME280_pressure;Samples;Min_cycle;Max_cycle;Signal;HPM_P1;HPM_P2
2022/06/30 00:00:36;;;;;;;2.23;1.53;;;23.10;99.90;;;;;;5035324;28;20666;-81
2022/06/30 00:03:02;;;;;;;2.37;1.33;;;23.00;99.90;;;;;;5034728;28;20195;-81
2022/06/30 00:05:29;;;;;;;1.37;1.27;;;22.90;99.90;;;;;;5031757;28;20182;-81
2022/06/30 00:07:55;;;;;;;2.10;1.57;;;22.60;99.90;;;;;;5034706;28;20264;-81
2022/06/30 00:10:21;;;;;;;2.43;1.57;;;22.40;99.90;;;;;;5033137;28;20213;-81
2022/06/30 00:12:46;;;;;;;1.33;1.23;;;22.20;99.90;;;;;;5037677;28;20716;-81
2022/06/30 00:15:12;;;;;;;1.40;1.13;;;22.20;99.90;;;;;;5037031;28;20187;-81
2022/06/30 00:17:37;;;;;;;1.20;1.10;;;22.10;99.90;;;;;;5037399;28;20183;-81
2022/06/30 00:20:04;;;;;;;0.53;0.53;;;22.10;99.90;;;;;;5039659;28;21163;-81
2022/06/30 00:22:29;;;;;;;1.70;1.13;;;22.20;99.90;;;;;;5038221;28;20197;-81
2022/06/30 00:24:55;;;;;;;0.87;0.83;;;22.30;99.90;;;;;;5038986;28;20259;-81
2022/06/30 00:27:20;;;;;;;1.10;1.10;;;22.30;99.90;;;;;;5038879;28;20182;-81
2022/06/30 00:29:46;;;;;;;1.80;0.87;;;22.40;99.90;;;;;;5038919;28;20221;-81
2022/06/30 00:32:11;;;;;;;0.67;0.67;;;22.40;99.90;;;;;;5037545;28;20177;-80
2022/06/30 00:34:37;;;;;;;2.00;1.30;;;22.50;99.90;;;;;;5037101;28;20174;-81
2022/06/30 00:37:03;;;;;;;0.50;0.50;;;22.50;99.90;;;;;;5039718;28;20236;-81
2022/06/30 00:39:29;;;;;;;0.80;0.80;;;22.50;99.90;;;;;;5038189;28;20679;-81
2022/06/30 00:41:55;;;;;;;3.10;0.93;;;22.50;99.90;;;;;;5039182;28;20660;-81
2022/06/30 00:44:21;;;;;;;1.23;0.93;;;22.40;99.90;;;;;;5037214;28;20198;-81
2022/06/30 00:46:47;;;;;;;0.70;0.70;;;22.40;99.90;;;;;;5043783;28;20267;-81
2022/06/30 00:49:13;;;;;;;1.00;1.00;;;22.40;99.90;;;;;;5037470;28;20210;-81
2022/06/30 00:51:38;;;;;;;0.53;0.53;;;22.40;99.90;;;;;;5035567;28;20216;-81
2022/06/30 00:54:06;;;;;;;0.87;0.77;;;22.40;99.90;;;;;;5038319;28;20194;-81
2022/06/30 00:56:33;;;;;;;1.00;0.90;;;22.40;99.90;;;;;;5043479;28;20188;-81
2022/06/30 00:59:04;;;;;;;1.17;1.07;;;22.10;99.90;;;;;;5037056;28;20214;-81
2022/06/30 01:01:31;;;;;;;1.40;1.00;;;22.30;99.90;;;;;;5036199;28;20187;-81
2022/06/30 01:03:58;;;;;;;1.67;1.10;;;22.40;99.90;;;;;;5037698;28;20378;-81
2022/06/30 01:06:24;;;;;;;1.90;1.40;;;22.40;99.90;;;;;;5035869;28;20214;-81
2022/06/30 01:08:50;;;;;;;1.23;0.93;;;22.40;99.90;;;;;;5036809;28;20298;-81
2022/06/30 01:14:01;;;;;;;0.83;0.80;;;22.40;99.90;;;;;;5037319;28;20181;-80
2022/06/30 01:16:27;;;;;;;0.80;0.80;;;22.30;99.90;;;;;;5037964;28;20541;-81
2022/06/30 01:18:52;;;;;;;1.57;1.17;;;22.30;99.90;;;;;;5038186;28;20213;-81
2022/06/30 01:21:18;;;;;;;1.20;1.10;;;22.30;99.90;;;;;;5036168;28;20215;-81
2022/06/30 01:23:44;;;;;;;3.00;1.90;;;22.30;99.90;;;;;;5038333;28;20209;-81
2022/06/30 01:26:10;;;;;;;1.20;1.20;;;22.20;99.90;;;;;;5037783;28;20235;-81
2022/06/30 01:28:36;;;;;;;1.03;0.90;;;22.20;99.90;;;;;;5039848;28;20218;-81
2022/06/30 01:31:01;;;;;;;1.10;0.93;;;22.20;99.90;;;;;;5036611;28;20205;-81
2022/06/30 01:33:27;;;;;;;1.47;1.10;;;22.20;99.90;;;;;;5036084;28;20665;-81
2022/06/30 01:35:56;;;;;;;1.03;1.03;;;22.10;99.90;;;;;;5038378;28;20195;-81
2022/06/30 01:38:22;;;;;;;0.87;0.87;;;22.10;99.90;;;;;;5036566;28;20659;-80
2022/06/30 01:40:48;;;;;;;1.17;0.77;;;22.10;99.90;;;;;;5038289;28;20218;-81
2022/06/30 01:43:15;;;;;;;1.20;1.17;;;22.10;99.90;;;;;;5037129;28;20214;-81
2022/06/30 01:45:41;;;;;;;1.10;1.03;;;22.10;99.90;;;;;;5036663;28;20193;-81
2022/06/30 01:48:08;;;;;;;0.70;0.70;;;22.10;99.90;;;;;;5038026;28;20196;-81
2022/06/30 01:50:34;;;;;;;1.43;1.00;;;22.00;99.90;;;;;;5037014;28;20741;-81
2022/06/30 01:53:01;;;;;;;1.37;1.27;;;22.00;99.90;;;;;;5037969;28;20182;-81
2022/06/30 01:55:27;;;;;;;0.90;0.90;;;22.00;99.90;;;;;;5036253;28;20213;-80
2022/06/30 01:57:53;;;;;;;2.23;1.33;;;21.90;99.90;;;;;;5034421;28;20181;-81
2022/06/30 02:00:21;;;;;;;1.27;1.17;;;21.90;99.90;;;;;;5036959;28;20216;-81
2022/06/30 02:02:50;;;;;;;1.57;1.47;;;21.90;99.90;;;;;;5034650;28;20621;-81
2022/06/30 02:05:16;;;;;;;1.00;1.00;;;21.90;99.90;;;;;;5036581;28;20679;-80
2022/06/30 02:07:42;;;;;;;1.57;0.90;;;21.80;99.90;;;;;;5035549;28;20190;-81
2022/06/30 02:10:10;;;;;;;0.70;0.70;;;21.80;99.90;;;;;;5037889;28;20747;-80
2022/06/30 02:12:45;;;;;;;1.93;1.13;;;21.60;99.90;;;;;;5041556;28;20179;-80
2022/06/30 02:15:17;;;;;;;1.10;1.10;;;21.50;99.90;;;;;;5035535;28;20643;-81
2022/06/30 02:17:44;;;;;;;1.87;0.93;;;21.70;99.90;;;;;;5035383;28;20249;-81
2022/06/30 02:20:10;;;;;;;1.33;0.97;;;21.80;99.90;;;;;;5036764;28;20260;-81
2022/06/30 02:22:41;;;;;;;0.87;0.80;;;21.80;99.90;;;;;;5037222;28;20251;-81
2022/06/30 02:25:08;;;;;;;1.80;1.70;;;21.80;99.90;;;;;;5033443;28;20222;-81
2022/06/30 02:27:34;;;;;;;0.97;0.97;;;21.70;99.90;;;;;;5035970;28;20182;-81
2022/06/30 02:29:59;;;;;;;0.67;0.67;;;21.70;99.90;;;;;;5034295;28;20581;-81
2022/06/30 02:32:25;;;;;;;2.57;1.10;;;21.60;99.90;;;;;;5035505;28;20186;-80
2022/06/30 02:34:52;;;;;;;1.37;1.17;;;21.60;99.90;;;;;;5034076;28;20220;-81
2022/06/30 02:37:18;;;;;;;0.60;0.60;;;21.60;99.90;;;;;;5041973;28;20178;-81
2022/06/30 02:39:44;;;;;;;1.27;1.20;;;21.60;99.90;;;;;;5035854;28;20301;-81
2022/06/30 02:42:10;;;;;;;0.63;0.63;;;21.60;99.90;;;;;;5037226;28;20264;-80
2022/06/30 02:44:35;;;;;;;1.27;0.87;;;21.50;99.90;;;;;;5036560;28;20228;-81
2022/06/30 02:47:02;;;;;;;1.87;1.20;;;21.50;99.90;;;;;;5052039;28;20675;-81
2022/06/30 02:49:27;;;;;;;1.23;1.10;;;21.50;99.90;;;;;;5035509;28;20765;-81
2022/06/30 02:51:53;;;;;;;2.37;1.53;;;21.50;99.90;;;;;;5033951;28;20199;-80
2022/06/30 02:54:18;;;;;;;1.53;1.17;;;21.40;99.90;;;;;;5035334;28;20185;-81
2022/06/30 02:56:45;;;;;;;2.43;1.70;;;21.30;99.90;;;;;;5041775;28;20185;-80
2022/06/30 02:59:10;;;;;;;0.73;0.73;;;21.20;99.90;;;;;;5035687;28;20202;-81
2022/06/30 03:01:36;;;;;;;0.83;0.83;;;21.10;99.90;;;;;;5035948;28;20225;-80
2022/06/30 03:04:03;;;;;;;0.80;0.80;;;21.10;99.90;;;;;;5057434;28;20186;-81
2022/06/30 03:06:32;;;;;;;2.93;1.23;;;21.10;99.90;;;;;;5037150;28;20190;-80
2022/06/30 03:08:58;;;;;;;1.03;0.97;;;21.20;99.90;;;;;;5034780;28;20609;-81
2022/06/30 03:11:25;;;;;;;1.00;0.90;;;21.20;99.90;;;;;;5035317;28;20205;-80
2022/06/30 03:13:51;;;;;;;2.00;1.33;;;21.10;99.90;;;;;;5036134;28;20183;-81
2022/06/30 03:16:17;;;;;;;0.70;0.70;;;21.10;99.90;;;;;;5036040;28;20184;-81
2022/06/30 03:18:43;;;;;;;1.37;1.13;;;21.10;99.90;;;;;;5035105;28;20194;-81
2022/06/30 03:21:09;;;;;;;1.43;1.33;;;21.00;99.90;;;;;;5035978;28;20182;-81
2022/06/30 03:23:35;;;;;;;3.23;1.00;;;21.00;99.90;;;;;;5041401;28;21228;-80
2022/06/30 03:26:01;;;;;;;1.77;1.23;;;20.90;99.90;;;;;;5034874;28;20198;-80
2022/06/30 03:28:26;;;;;;;1.40;1.20;;;20.90;99.90;;;;;;5035497;28;20202;-81
2022/06/30 03:30:52;;;;;;;1.60;1.13;;;20.90;99.90;;;;;;5033818;28;20205;-81
2022/06/30 03:33:19;;;;;;;0.70;0.70;;;20.90;99.90;;;;;;5035155;28;20211;-80
2022/06/30 03:35:45;;;;;;;0.93;0.93;;;20.90;99.90;;;;;;5036538;28;20549;-81
2022/06/30 03:38:11;;;;;;;0.97;0.90;;;20.90;99.90;;;;;;5036449;28;20186;-80
2022/06/30 03:40:37;;;;;;;1.53;1.43;;;20.80;99.90;;;;;;5035131;28;20352;-81
2022/06/30 03:43:03;;;;;;;1.23;1.00;;;20.80;99.90;;;;;;5033526;28;20320;-80
2022/06/30 03:45:29;;;;;;;0.90;0.90;;;21.10;99.90;;;;;;5035759;28;20324;-81
2022/06/30 03:47:55;;;;;;;0.80;0.80;;;21.50;99.90;;;;;;5033531;28;20190;-80
2022/06/30 03:50:20;;;;;;;0.60;0.60;;;21.90;99.90;;;;;;5035633;28;20220;-80
2022/06/30 03:52:46;;;;;;;1.27;1.17;;;22.20;99.90;;;;;;5034725;28;20236;-81
2022/06/30 03:55:13;;;;;;;1.33;1.23;;;22.10;99.90;;;;;;5034652;28;20185;-80
2022/06/30 03:57:38;;;;;;;1.07;1.07;;;22.30;99.90;;;;;;5034200;28;20185;-81
2022/06/30 04:00:05;;;;;;;0.80;0.63;;;22.70;99.90;;;;;;5035342;28;20205;-81
2022/06/30 04:02:31;;;;;;;0.90;0.90;;;23.30;99.90;;;;;;5033362;28;20269;-80
2022/06/30 04:04:57;;;;;;;1.03;0.90;;;23.70;99.90;;;;;;5034313;28;20224;-81
2022/06/30 04:07:24;;;;;;;0.97;0.97;;;24.10;99.90;;;;;;5035843;28;20190;-81
2022/06/30 04:09:50;;;;;;;1.43;1.30;;;24.40;99.90;;;;;;5034635;28;20213;-81
2022/06/30 04:12:15;;;;;;;1.23;1.00;;;24.10;99.90;;;;;;5034683;28;20190;-80
2022/06/30 04:14:41;;;;;;;1.00;1.00;;;23.40;99.90;;;;;;5034298;28;20212;-80
2022/06/30 04:17:07;;;;;;;0.60;0.60;;;22.90;99.90;;;;;;5035623;28;20307;-80
2022/06/30 04:19:33;;;;;;;1.13;0.70;;;22.60;99.90;;;;;;5035368;28;20692;-81
2022/06/30 04:21:59;;;;;;;1.30;0.90;;;22.30;99.90;;;;;;5035737;28;20751;-80
2022/06/30 04:24:24;;;;;;;2.17;1.20;;;22.10;99.90;;;;;;5034581;28;20713;-81
2022/06/30 04:26:50;;;;;;;0.60;0.60;;;22.00;99.90;;;;;;5034555;28;20545;-80
2022/06/30 04:29:15;;;;;;;0.90;0.90;;;22.00;99.90;;;;;;5035377;28;20676;-81
2022/06/30 04:34:25;;;;;;;1.70;1.20;;;21.90;99.90;;;;;;5035848;28;20179;-80
2022/06/30 04:36:50;;;;;;;1.10;1.10;;;22.00;99.90;;;;;;5034702;28;20186;-80
2022/06/30 04:39:16;;;;;;;1.60;1.17;;;22.00;99.90;;;;;;5034473;28;20211;-80
2022/06/30 04:41:41;;;;;;;0.70;0.70;;;22.40;99.90;;;;;;5034741;28;20564;-81
2022/06/30 04:44:07;;;;;;;1.30;1.20;;;22.70;99.90;;;;;;5035784;28;20277;-81
2022/06/30 04:46:33;;;;;;;1.43;1.33;;;23.00;99.90;;;;;;5034483;28;20605;-81
2022/06/30 04:48:58;;;;;;;1.43;1.30;;;23.00;99.90;;;;;;5033363;28;20208;-80
2022/06/30 04:51:24;;;;;;;1.23;1.13;;;22.90;99.90;;;;;;5034985;28;20691;-81
2022/06/30 04:53:50;;;;;;;0.93;0.93;;;22.90;99.90;;;;;;5034714;28;20212;-81
2022/06/30 04:56:17;;;;;;;1.30;1.30;;;22.90;99.90;;;;;;5042044;28;20277;-81
2022/06/30 04:58:43;;;;;;;0.83;0.83;;;22.60;99.90;;;;;;5039621;28;20202;-81
2022/06/30 05:01:09;;;;;;;0.77;0.77;;;22.30;99.90;;;;;;5038439;28;20204;-80
2022/06/30 05:03:35;;;;;;;1.70;1.30;;;22.50;99.90;;;;;;5037967;28;20598;-81
2022/06/30 05:06:00;;;;;;;1.70;1.00;;;22.70;99.90;;;;;;5036819;28;20296;-80
2022/06/30 05:08:27;;;;;;;1.23;1.00;;;22.80;99.90;;;;;;5037029;28;20206;-81
2022/06/30 05:10:53;;;;;;;1.07;1.00;;;23.00;99.90;;;;;;5037259;28;20683;-81
2022/06/30 05:13:18;;;;;;;0.87;0.87;;;23.10;99.90;;;;;;5036134;28;20304;-81
2022/06/30 05:15:47;;;;;;;0.70;0.70;;;23.20;99.90;;;;;;5037993;28;20264;-81
2022/06/30 05:18:13;;;;;;;1.20;1.13;;;23.20;99.90;;;;;;5038989;28;20193;-81
2022/06/30 05:20:40;;;;;;;1.57;1.30;;;23.30;99.90;;;;;;5035798;28;20182;-80
2022/06/30 05:23:06;;;;;;;0.77;0.77;;;23.30;99.90;;;;;;5038156;28;20182;-80
2022/06/30 05:28:17;;;;;;;2.17;0.90;;;23.30;99.90;;;;;;5035400;28;20193;-81
2022/06/30 05:30:43;;;;;;;1.57;1.10;;;23.40;99.90;;;;;;5036079;28;20293;-81
2022/06/30 05:33:09;;;;;;;1.80;0.97;;;23.50;99.90;;;;;;5038775;28;20701;-81
2022/06/30 05:35:34;;;;;;;0.93;0.93;;;23.50;99.90;;;;;;5037128;28;20651;-81
2022/06/30 05:38:00;;;;;;;3.40;1.27;;;23.50;99.90;;;;;;5043691;28;20225;-81
2022/06/30 05:40:26;;;;;;;1.03;1.03;;;23.30;99.90;;;;;;5039631;28;20206;-81
2022/06/30 05:42:52;;;;;;;1.00;1.00;;;23.50;99.90;;;;;;5037535;28;20557;-81
2022/06/30 05:45:17;;;;;;;1.10;0.67;;;23.30;99.90;;;;;;5036978;28;20204;-81
2022/06/30 05:47:53;;;;;;;1.00;1.00;;;23.50;99.90;;;;;;5037594;28;20212;-81
2022/06/30 05:50:22;;;;;;;0.67;0.67;;;23.70;99.90;;;;;;5044476;28;20212;-81
2022/06/30 05:52:50;;;;;;;1.47;1.37;;;23.90;99.90;;;;;;5037436;28;20186;-81
2022/06/30 05:55:16;;;;;;;0.80;0.80;;;23.80;99.90;;;;;;5037847;28;20246;-82
2022/06/30 05:57:53;;;;;;;1.27;0.80;;;23.80;99.90;;;;;;5037934;28;20257;-81
2022/06/30 06:00:20;;;;;;;2.13;1.07;;;24.10;99.90;;;;;;5036154;28;20209;-81
2022/06/30 06:02:46;;;;;;;5.17;1.23;;;24.20;99.90;;;;;;5036103;28;20213;-81
2022/06/30 06:05:12;;;;;;;1.33;1.07;;;24.40;99.90;;;;;;5036330;28;20187;-81
2022/06/30 06:07:38;;;;;;;2.20;1.20;;;24.40;99.90;;;;;;5036658;28;20265;-81
2022/06/30 06:10:04;;;;;;;1.37;1.23;;;24.30;99.90;;;;;;5036501;28;20714;-81
2022/06/30 06:12:30;;;;;;;1.20;1.10;;;24.50;99.90;;;;;;5034272;28;20178;-81
2022/06/30 06:14:55;;;;;;;1.80;1.23;;;24.60;99.90;;;;;;5036237;28;20554;-81
2022/06/30 06:17:21;;;;;;;1.97;1.87;;;24.80;99.90;;;;;;5037406;28;20186;-81
2022/06/30 06:19:46;;;;;;;1.30;1.20;;;24.70;99.90;;;;;;5037470;28;20209;-81
2022/06/30 06:22:12;;;;;;;1.10;1.10;;;24.50;99.90;;;;;;5037509;28;20279;-81
2022/06/30 06:24:37;;;;;;;0.83;0.83;;;24.70;99.90;;;;;;5037420;28;20187;-81
2022/06/30 06:27:03;;;;;;;1.90;0.97;;;24.80;99.90;;;;;;5037389;28;20210;-81
2022/06/30 06:29:29;;;;;;;1.33;1.17;;;25.00;99.90;;;;;;5035828;28;20213;-81
2022/06/30 06:31:55;;;;;;;1.33;1.33;;;25.20;99.90;;;;;;5036827;28;20642;-81
2022/06/30 06:34:21;;;;;;;1.20;1.10;;;25.30;99.90;;;;;;5034912;28;20281;-81
2022/06/30 06:36:46;;;;;;;1.37;1.27;;;25.50;99.90;;;;;;5035152;28;20659;-81
2022/06/30 06:39:12;;;;;;;2.07;1.13;;;25.60;99.90;;;;;;5036294;28;20280;-81
2022/06/30 06:41:37;;;;;;;1.10;1.00;;;25.60;99.90;;;;;;5034503;28;20186;-81
2022/06/30 06:44:03;;;;;;;1.43;1.33;;;25.70;99.90;;;;;;5035610;28;20206;-81
2022/06/30 06:46:28;;;;;;;1.60;1.30;;;25.90;99.90;;;;;;5035467;28;20185;-81
2022/06/30 06:48:55;;;;;;;1.43;1.20;;;25.90;99.90;;;;;;5034640;28;20247;-81
2022/06/30 06:51:21;;;;;;;1.73;1.43;;;26.00;99.90;;;;;;5035690;28;20329;-81
2022/06/30 06:53:46;;;;;;;2.47;1.33;;;25.90;99.90;;;;;;5035394;28;20268;-81
2022/06/30 06:56:12;;;;;;;1.30;1.17;;;25.70;99.90;;;;;;5037109;28;20193;-81
2022/06/30 06:58:38;;;;;;;1.90;0.90;;;25.90;99.90;;;;;;5035519;28;20209;-80
2022/06/30 07:01:04;;;;;;;1.93;0.83;;;25.80;99.90;;;;;;5033687;28;20584;-81
2022/06/30 07:03:31;;;;;;;1.50;1.40;;;26.10;99.90;;;;;;5040957;28;20697;-81
2022/06/30 07:05:57;;;;;;;1.73;0.73;;;26.20;99.90;;;;;;5040985;28;20189;-81
2022/06/30 07:08:23;;;;;;;1.00;1.00;;;26.30;99.90;;;;;;5035345;28;20228;-83
2022/06/30 07:10:49;;;;;;;1.73;1.40;;;26.30;99.90;;;;;;5037304;28;20888;-83
2022/06/30 07:13:14;;;;;;;2.30;1.13;;;26.60;99.90;;;;;;5036598;28;20182;-83
2022/06/30 07:15:40;;;;;;;3.57;1.97;;;26.60;99.90;;;;;;5035562;28;20300;-82
2022/06/30 07:18:05;;;;;;;1.30;1.30;;;26.70;99.90;;;;;;5035141;28;20182;-83
2022/06/30 07:20:31;;;;;;;2.57;1.40;;;26.70;99.90;;;;;;5034336;28;20309;-81
2022/06/30 07:22:56;;;;;;;1.67;1.33;;;26.90;99.90;;;;;;5034515;28;20205;-83
2022/06/30 07:25:22;;;;;;;1.20;1.10;;;26.90;99.90;;;;;;5033441;28;20201;-83
2022/06/30 07:27:47;;;;;;;2.57;1.57;;;27.00;99.90;;;;;;5036075;28;20190;-83
2022/06/30 07:30:13;;;;;;;1.73;1.60;;;27.00;99.90;;;;;;5034767;28;20288;-83
2022/06/30 07:32:39;;;;;;;1.60;1.30;;;27.20;99.90;;;;;;5036333;28;20221;-83
2022/06/30 07:35:06;;;;;;;1.75;1.60;;;27.30;99.90;;;;;;5033900;28;20255;-83
2022/06/30 07:37:36;;;;;;;2.55;1.40;;;27.30;99.90;;;;;;5035030;28;20257;-82
2022/06/30 07:40:02;;;;;;;1.00;1.00;;;27.30;99.90;;;;;;5039805;28;20303;-82
2022/06/30 07:42:28;;;;;;;0.80;0.80;;;27.40;99.90;;;;;;5035177;28;20271;-81
2022/06/30 07:44:53;;;;;;;1.95;1.73;;;27.50;99.90;;;;;;5034118;28;20293;-81
2022/06/30 07:47:19;;;;;;;2.28;1.38;;;27.70;99.90;;;;;;5035528;28;20178;-82
2022/06/30 07:49:45;;;;;;;2.35;1.92;;;27.50;99.90;;;;;;5034967;28;20234;-82
2022/06/30 07:52:10;;;;;;;1.20;1.13;;;27.20;99.90;;;;;;5036650;28;20244;-81
2022/06/30 07:54:36;;;;;;;1.63;1.43;;;26.90;99.90;;;;;;5037879;28;20228;-83
2022/06/30 07:57:02;;;;;;;1.40;1.30;;;27.20;99.90;;;;;;5038398;28;20564;-83
2022/06/30 07:59:27;;;;;;;3.17;2.40;;;27.60;99.90;;;;;;5037023;28;20206;-83
2022/06/30 08:01:53;;;;;;;2.80;1.75;;;27.60;99.90;;;;;;5043496;28;20190;-83
2022/06/30 08:04:19;;;;;;;2.83;1.88;;;28.00;99.90;;;;;;5035367;28;20190;-83
2022/06/30 08:06:44;;;;;;;1.55;1.33;;;28.00;99.90;;;;;;5037029;28;20182;-82
2022/06/30 08:09:10;;;;;;;1.20;1.10;;;28.10;99.90;;;;;;5036974;28;20261;-83
2022/06/30 08:11:38;;;;;;;1.95;1.75;;;28.40;99.90;;;;;;5039005;28;20269;-83
2022/06/30 08:14:03;;;;;;;1.55;1.45;;;28.30;99.90;;;;;;5055838;28;20177;-81
2022/06/30 08:16:29;;;;;;;1.75;1.65;;;28.60;99.90;;;;;;5033027;28;20567;-83
2022/06/30 08:18:54;;;;;;;1.88;1.77;;;28.10;99.90;;;;;;5039403;28;20222;-83
2022/06/30 08:21:20;;;;;;;1.75;1.65;;;28.00;99.90;;;;;;5034776;28;20189;-83
2022/06/30 08:23:45;;;;;;;3.08;2.50;;;27.90;99.90;;;;;;5034903;28;20190;-83
2022/06/30 08:26:11;;;;;;;1.75;1.65;;;27.80;99.90;;;;;;5034486;28;20174;-83
2022/06/30 08:28:37;;;;;;;2.63;2.00;;;27.50;99.90;;;;;;5032635;28;20213;-83
2022/06/30 08:31:03;;;;;;;2.47;1.73;;;27.60;99.90;;;;;;5033232;28;20558;-84
2022/06/30 08:33:28;;;;;;;1.50;1.40;;;27.20;99.90;;;;;;5040706;28;20656;-83
2022/06/30 08:35:54;;;;;;;1.60;1.50;;;27.70;99.90;;;;;;5037530;28;20187;-83
2022/06/30 08:38:21;;;;;;;1.80;1.70;;;28.30;99.90;;;;;;5039699;28;20186;-83
2022/06/30 08:43:33;;;;;;;1.88;0.98;;;29.10;99.90;;;;;;5039644;28;20205;-83
2022/06/30 08:46:00;;;;;;;1.50;1.40;;;29.00;99.90;;;;;;5061571;28;20190;-83
2022/06/30 08:48:26;;;;;;;1.92;1.33;;;28.40;99.90;;;;;;5038760;28;20347;-83
2022/06/30 08:50:58;;;;;;;0.93;0.93;;;28.50;99.90;;;;;;5038239;28;20637;-83
2022/06/30 08:53:29;;;;;;;0.80;0.80;;;28.90;99.90;;;;;;5037871;28;20250;-83
2022/06/30 08:55:56;;;;;;;1.70;1.48;;;29.20;99.90;;;;;;5037905;28;20181;-83
2022/06/30 08:58:22;;;;;;;1.55;1.40;;;29.70;99.90;;;;;;5036935;28;20181;-83
2022/06/30 09:00:51;;;;;;;3.63;1.73;;;30.00;99.90;;;;;;5036079;28;20284;-83
2022/06/30 09:03:17;;;;;;;1.00;1.00;;;29.20;99.90;;;;;;5034719;28;20852;-83
2022/06/30 09:05:46;;;;;;;1.92;1.67;;;29.40;99.90;;;;;;5037759;28;20212;-84
2022/06/30 09:08:12;;;;;;;0.93;0.90;;;29.30;99.90;;;;;;5036632;28;20303;-83
2022/06/30 09:10:47;;;;;;;1.33;1.25;;;29.60;99.90;;;;;;5038014;28;20247;-83
2022/06/30 09:13:13;;;;;;;2.22;1.52;;;29.40;99.90;;;;;;5033551;28;20501;-83
2022/06/30 09:15:39;;;;;;;4.05;2.05;;;29.50;99.90;;;;;;5036590;28;20197;-83
2022/06/30 09:18:06;;;;;;;1.80;1.42;;;28.70;99.90;;;;;;5037066;28;20187;-83
2022/06/30 09:20:34;;;;;;;1.38;0.73;;;29.10;99.90;;;;;;5043370;28;20272;-83
2022/06/30 09:23:00;;;;;;;1.25;0.90;;;29.70;99.90;;;;;;5039120;28;20212;-83
2022/06/30 09:25:31;;;;;;;1.33;1.13;;;30.10;99.90;;;;;;5044991;28;20190;-84
2022/06/30 09:27:57;;;;;;;1.63;1.48;;;30.40;99.90;;;;;;5038622;28;20188;-83
2022/06/30 09:30:24;;;;;;;1.38;1.27;;;30.70;99.90;;;;;;5039142;28;20213;-82
2022/06/30 09:32:53;;;;;;;2.28;2.08;;;30.50;99.90;;;;;;5037057;28;20206;-83
2022/06/30 09:35:21;;;;;;;1.20;1.15;;;30.80;99.90;;;;;;5035259;28;20566;-85
2022/06/30 09:37:58;;;;;;;1.13;1.08;;;31.10;99.90;;;;;;5038072;28;20182;-84
2022/06/30 09:40:29;;;;;;;1.15;1.10;;;31.50;99.90;;;;;;5036989;28;20278;-84
2022/06/30 09:42:55;;;;;;;2.70;2.55;;;31.10;99.90;;;;;;5057682;28;20186;-85
2022/06/30 09:45:34;;;;;;;1.50;1.40;;;30.80;99.90;;;;;;5036070;28;20675;-84
2022/06/30 09:47:59;;;;;;;1.10;1.00;;;31.20;99.90;;;;;;5037075;28;20320;-84
2022/06/30 09:50:25;;;;;;;0.77;0.77;;;31.40;99.90;;;;;;5039074;28;20284;-84
2022/06/30 09:53:14;;;;;;;0.85;0.73;;;31.70;99.90;;;;;;5034890;28;20191;-84
2022/06/30 09:55:47;;;;;;;0.80;0.80;;;30.90;99.90;;;;;;5036343;28;20184;-84
2022/06/30 09:58:38;;;;;;;1.33;1.27;;;31.10;99.90;;;;;;5035305;28;20194;-85
2022/06/30 10:01:04;;;;;;;0.60;0.60;;;31.50;99.90;;;;;;5054607;28;20198;-85
2022/06/30 10:03:30;;;;;;;0.85;0.82;;;31.80;99.90;;;;;;5035577;28;20605;-85
2022/06/30 10:06:13;;;;;;;0.80;0.80;;;31.70;99.90;;;;;;5033212;28;20269;-84
2022/06/30 10:08:39;;;;;;;0.82;0.82;;;31.90;99.90;;;;;;5036768;28;20271;-85
2022/06/30 10:11:06;;;;;;;1.63;1.52;;;31.80;99.90;;;;;;5042228;28;20213;-84
2022/06/30 10:13:37;;;;;;;0.85;0.85;;;31.60;99.90;;;;;;5035858;28;20178;-85
2022/06/30 10:16:04;;;;;;;1.20;1.10;;;31.30;99.90;;;;;;5033914;28;20689;-85
2022/06/30 10:18:32;;;;;;;0.70;0.70;;;31.00;99.90;;;;;;5037670;28;20210;-84
2022/06/30 10:20:58;;;;;;;1.08;1.05;;;31.30;99.90;;;;;;5058035;28;20182;-84
2022/06/30 10:23:24;;;;;;;0.70;0.70;;;31.10;99.90;;;;;;5035728;28;20196;-85
2022/06/30 10:25:52;;;;;;;1.00;0.98;;;31.40;99.90;;;;;;5035970;28;20182;-84
2022/06/30 10:28:20;;;;;;;0.82;0.82;;;31.90;99.90;;;;;;5036874;28;20192;-85
2022/06/30 10:30:58;;;;;;;0.70;0.68;;;31.40;99.90;;;;;;5036702;28;20216;-85
2022/06/30 10:33:49;;;;;;;0.73;0.73;;;31.80;99.90;;;;;;5035278;28;20844;-84
2022/06/30 10:36:25;;;;;;;0.80;0.80;;;32.10;99.90;;;;;;5036269;28;20182;-84
2022/06/30 10:39:18;;;;;;;0.95;0.65;;;32.10;99.90;;;;;;5035810;28;20224;-85
2022/06/30 10:41:46;;;;;;;0.77;0.60;;;32.50;99.90;;;;;;5035553;28;20186;-85
2022/06/30 10:44:20;;;;;;;0.88;0.85;;;32.60;99.90;;;;;;5036275;28;20193;-84
2022/06/30 10:46:49;;;;;;;1.13;0.75;;;32.70;99.90;;;;;;5040924;28;20268;-84
2022/06/30 10:49:15;;;;;;;0.98;0.80;;;32.60;99.90;;;;;;5041332;28;20251;-85
2022/06/30 10:51:41;;;;;;;0.50;0.50;;;33.00;99.90;;;;;;5034905;28;20296;-85
2022/06/30 10:54:08;;;;;;;2.55;1.15;;;33.00;99.90;;;;;;5035604;28;20211;-85
2022/06/30 10:56:49;;;;;;;0.82;0.82;;;32.30;99.90;;;;;;5032068;28;20186;-85
2022/06/30 10:59:16;;;;;;;0.70;0.70;;;32.10;99.90;;;;;;5035023;28;20201;-85
2022/06/30 11:02:14;;;;;;;1.17;1.08;;;32.10;99.90;;;;;;5032369;28;21274;-84
2022/06/30 11:04:43;;;;;;;1.48;0.93;;;32.00;99.90;;;;;;5034786;28;20197;-85
2022/06/30 11:07:12;;;;;;;1.58;1.40;;;32.30;99.90;;;;;;5041147;28;20181;-85
2022/06/30 11:10:01;;;;;;;0.60;0.60;;;32.70;99.90;;;;;;5033936;28;20217;-85
2022/06/30 11:12:29;;;;;;;1.55;1.45;;;32.80;99.90;;;;;;5036351;28;20217;-85
2022/06/30 11:14:57;;;;;;;1.38;0.90;;;32.50;99.90;;;;;;5033403;28;20181;-85
2022/06/30 11:17:31;;;;;;;0.70;0.70;;;32.80;99.90;;;;;;5056424;28;20713;-84
2022/06/30 11:20:05;;;;;;;0.90;0.70;;;33.10;99.90;;;;;;5036574;28;20214;-83
2022/06/30 11:22:32;;;;;;;4.60;0.82;;;33.20;99.90;;;;;;5039899;28;20185;-84
2022/06/30 11:25:02;;;;;;;1.00;1.00;;;33.30;99.90;;;;;;5033099;28;20189;-85
2022/06/30 11:27:31;;;;;;;1.23;1.13;;;33.40;99.90;;;;;;5034840;28;20181;-85
2022/06/30 11:30:03;;;;;;;0.70;0.70;;;33.40;99.90;;;;;;5033926;28;20225;-85
2022/06/30 11:32:28;;;;;;;1.13;1.05;;;33.50;99.90;;;;;;5032300;28;20173;-85
2022/06/30 11:34:56;;;;;;;1.02;1.00;;;33.60;99.90;;;;;;5033667;28;20239;-85
2022/06/30 11:37:23;;;;;;;0.88;0.88;;;33.40;99.90;;;;;;5034736;28;20223;-85
2022/06/30 11:40:00;;;;;;;0.70;0.70;;;33.70;99.90;;;;;;5034715;28;20570;-85
2022/06/30 11:42:27;;;;;;;0.60;0.60;;;33.10;99.90;;;;;;5032294;28;20185;-84
2022/06/30 11:44:53;;;;;;;1.17;1.10;;;33.40;99.90;;;;;;5032518;28;20200;-84
2022/06/30 11:47:20;;;;;;;0.93;0.80;;;33.60;99.90;;;;;;5034995;28;20547;-84
2022/06/30 11:49:59;;;;;;;0.55;0.55;;;33.60;99.90;;;;;;5034472;28;20232;-84
2022/06/30 11:52:37;;;;;;;1.13;0.73;;;33.80;99.90;;;;;;5038712;28;20181;-83
2022/06/30 11:55:15;;;;;;;0.75;0.75;;;33.80;99.90;;;;;;5034010;28;20659;-84
2022/06/30 11:57:43;;;;;;;0.82;0.82;;;33.90;99.90;;;;;;5038895;28;20186;-84
2022/06/30 12:00:13;;;;;;;0.70;0.70;;;34.10;99.90;;;;;;5037467;28;20764;-84
2022/06/30 12:02:41;;;;;;;1.48;1.02;;;34.20;99.90;;;;;;5058219;28;20209;-84
2022/06/30 12:05:13;;;;;;;1.25;1.15;;;33.80;99.90;;;;;;5035226;28;20197;-84
2022/06/30 12:07:41;;;;;;;1.67;1.13;;;34.10;99.90;;;;;;5033467;28;20243;-82
2022/06/30 12:10:09;;;;;;;0.70;0.70;;;34.30;99.90;;;;;;5047023;28;20326;-81
2022/06/30 12:12:36;;;;;;;2.38;0.75;;;34.60;99.90;;;;;;5041617;28;20264;-83
2022/06/30 12:15:08;;;;;;;1.42;1.35;;;34.60;99.90;;;;;;5039005;28;20182;-84
2022/06/30 12:17:38;;;;;;;1.55;1.25;;;34.10;99.90;;;;;;5046083;28;20680;-84
2022/06/30 12:20:07;;;;;;;1.13;0.98;;;33.70;99.90;;;;;;5040059;28;20653;-83
2022/06/30 12:22:33;;;;;;;0.70;0.70;;;32.50;99.90;;;;;;5039608;28;20615;-83
2022/06/30 12:25:00;;;;;;;0.80;0.77;;;33.00;99.90;;;;;;5038167;28;20242;-83
2022/06/30 12:27:52;;;;;;;1.42;1.20;;;33.20;99.90;;;;;;5037976;28;20300;-84
2022/06/30 12:30:37;;;;;;;1.45;1.35;;;33.50;99.90;;;;;;5038025;28;20259;-84
2022/06/30 12:33:07;;;;;;;0.50;0.50;;;33.90;99.90;;;;;;5043470;28;20185;-84
2022/06/30 12:35:35;;;;;;;0.70;0.70;;;34.20;99.90;;;;;;5039508;28;20321;-84
2022/06/30 12:38:20;;;;;;;1.27;0.95;;;34.10;99.90;;;;;;5039057;28;20182;-85
2022/06/30 12:40:47;;;;;;;0.70;0.70;;;33.50;99.90;;;;;;5039321;28;20193;-83
2022/06/30 12:43:14;;;;;;;1.45;1.05;;;33.60;99.90;;;;;;5041117;28;20257;-84
2022/06/30 12:45:44;;;;;;;0.73;0.73;;;33.30;99.90;;;;;;5045788;28;20186;-84
2022/06/30 12:48:11;;;;;;;0.60;0.60;;;33.40;99.90;;;;;;5041664;28;20344;-84
2022/06/30 12:50:39;;;;;;;1.60;1.50;;;33.70;99.90;;;;;;5039203;28;20229;-83
2022/06/30 12:53:18;;;;;;;0.63;0.63;;;34.00;99.90;;;;;;5041585;28;20236;-83
2022/06/30 12:56:02;;;;;;;1.15;1.02;;;34.10;99.90;;;;;;5038641;28;20209;-83
2022/06/30 12:58:42;;;;;;;1.48;1.20;;;33.80;99.90;;;;;;5037524;28;20666;-83
2022/06/30 13:01:08;;;;;;;0.90;0.90;;;33.40;99.90;;;;;;5038922;28;20194;-84